sensor_id;sensor_type;location;lat;lon;timestamp;pressure;altitude;pressure_sealevel;temperature;humidity
62436;BME280;48480;50.252;18.848;2023-04-04T00:00:59;99365.17;;;1.42;56.55
62436;BME280;48480;50.252;18.848;2023-04-04T00:03:25;99365.02;;;1.38;56.81
62436;BME280;48480;50.252;18.848;2023-04-04T00:05:50;99365.05;;;1.31;56.75
62436;BME280;48480;50.252;18.848;2023-04-04T00:08:15;99363.86;;;1.26;56.95
62436;BME280;48480;50.252;18.848;2023-04-04T00:10:41;99360.45;;;1.21;57.08
62436;BME280;48480;50.252;18.848;2023-04-04T00:13:07;99360.79;;;1.15;57.23
62436;BME280;48480;50.252;18.848;2023-04-04T00:15:33;99355.95;;;1.10;57.27
62436;BME280;48480;50.252;18.848;2023-04-04T00:18:03;99358.16;;;1.06;57.32
62436;BME280;48480;50.252;18.848;2023-04-04T00:20:29;99359.30;;;1.01;57.37
62436;BME280;48480;50.252;18.848;2023-04-04T00:22:55;99357.64;;;0.95;57.43
62436;BME280;48480;50.252;18.848;2023-04-04T00:25:22;99353.84;;;0.94;57.62
62436;BME280;48480;50.252;18.848;2023-04-04T00:27:47;99345.56;;;0.91;57.78
62436;BME280;48480;50.252;18.848;2023-04-04T00:30:13;99350.34;;;0.97;57.84
62436;BME280;48480;50.252;18.848;2023-04-04T00:32:39;99355.88;;;0.96;57.83
62436;BME280;48480;50.252;18.848;2023-04-04T00:35:05;99352.86;;;0.92;57.83
62436;BME280;48480;50.252;18.848;2023-04-04T00:37:30;99353.39;;;0.89;57.98
62436;BME280;48480;50.252;18.848;2023-04-04T00:39:56;99352.41;;;0.85;58.07
62436;BME280;48480;50.252;18.848;2023-04-04T00:42:21;99352.73;;;0.82;58.16
62436;BME280;48480;50.252;18.848;2023-04-04T00:44:47;99353.88;;;0.80;58.30
62436;BME280;48480;50.252;18.848;2023-04-04T00:47:13;99356.30;;;0.78;58.21
62436;BME280;48480;50.252;18.848;2023-04-04T00:49:38;99354.06;;;0.79;58.37
62436;BME280;48480;50.252;18.848;2023-04-04T00:52:04;99353.02;;;0.77;58.49
62436;BME280;48480;50.252;18.848;2023-04-04T00:54:31;99352.23;;;0.76;58.30
62436;BME280;48480;50.252;18.848;2023-04-04T00:56:57;99359.17;;;0.74;58.63
62436;BME280;48480;50.252;18.848;2023-04-04T00:59:24;99361.09;;;0.70;58.42
62436;BME280;48480;50.252;18.848;2023-04-04T01:01:51;99366.88;;;0.65;58.57
62436;BME280;48480;50.252;18.848;2023-04-04T01:04:17;99367.79;;;0.56;58.72
62436;BME280;48480;50.252;18.848;2023-04-04T01:06:42;99366.67;;;0.52;58.92
62436;BME280;48480;50.252;18.848;2023-04-04T01:09:08;99363.39;;;0.49;58.94
62436;BME280;48480;50.252;18.848;2023-04-04T01:11:34;99362.61;;;0.47;59.06
62436;BME280;48480;50.252;18.848;2023-04-04T01:13:59;99356.53;;;0.43;59.07
62436;BME280;48480;50.252;18.848;2023-04-04T01:16:25;99355.38;;;0.39;59.33
62436;BME280;48480;50.252;18.848;2023-04-04T01:18:52;99351.03;;;0.36;59.32
62436;BME280;48480;50.252;18.848;2023-04-04T01:21:20;99349.67;;;0.35;59.28
62436;BME280;48480;50.252;18.848;2023-04-04T01:26:20;99346.67;;;0.30;59.54
62436;BME280;48480;50.252;18.848;2023-04-04T01:28:46;99349.23;;;0.29;59.76
62436;BME280;48480;50.252;18.848;2023-04-04T01:31:13;99351.94;;;0.25;59.64
62436;BME280;48480;50.252;18.848;2023-04-04T01:33:45;99358.85;;;0.21;59.78
62436;BME280;48480;50.252;18.848;2023-04-04T01:37:10;99362.50;;;0.18;59.93
62436;BME280;48480;50.252;18.848;2023-04-04T01:39:29;99366.37;;;0.14;59.82
62436;BME280;48480;50.252;18.848;2023-04-04T01:41:57;99367.58;;;0.10;59.94
62436;BME280;48480;50.252;18.848;2023-04-04T01:44:23;99367.80;;;0.08;60.28
62436;BME280;48480;50.252;18.848;2023-04-04T01:46:52;99366.35;;;0.09;60.18
62436;BME280;48480;50.252;18.848;2023-04-04T01:49:19;99364.41;;;0.08;60.22
62436;BME280;48480;50.252;18.848;2023-04-04T01:51:45;99362.73;;;0.05;60.26
62436;BME280;48480;50.252;18.848;2023-04-04T01:54:11;99359.83;;;-0.02;60.43
62436;BME280;48480;50.252;18.848;2023-04-04T01:56:36;99365.33;;;-0.08;60.58
62436;BME280;48480;50.252;18.848;2023-04-04T01:59:02;99367.57;;;-0.17;60.74
62436;BME280;48480;50.252;18.848;2023-04-04T02:01:27;99366.19;;;-0.27;60.77
62436;BME280;48480;50.252;18.848;2023-04-04T02:03:53;99370.09;;;-0.28;60.80
62436;BME280;48480;50.252;18.848;2023-04-04T02:06:18;99371.55;;;-0.29;60.92
62436;BME280;48480;50.252;18.848;2023-04-04T02:08:44;99377.11;;;-0.32;60.98
62436;BME280;48480;50.252;18.848;2023-04-04T02:11:09;99376.66;;;-0.35;61.00
62436;BME280;48480;50.252;18.848;2023-04-04T02:13:35;99373.65;;;-0.37;61.06
62436;BME280;48480;50.252;18.848;2023-04-04T02:16:05;99375.70;;;-0.43;61.21
62436;BME280;48480;50.252;18.848;2023-04-04T02:18:31;99374.11;;;-0.49;61.50
62436;BME280;48480;50.252;18.848;2023-04-04T02:20:57;99378.89;;;-0.52;61.47
62436;BME280;48480;50.252;18.848;2023-04-04T02:23:23;99376.84;;;-0.51;61.49
62436;BME280;48480;50.252;18.848;2023-04-04T02:25:52;99383.60;;;-0.49;61.40
62436;BME280;48480;50.252;18.848;2023-04-04T02:28:17;99380.09;;;-0.49;61.29
62436;BME280;48480;50.252;18.848;2023-04-04T02:30:43;99375.37;;;-0.53;61.37
62436;BME280;48480;50.252;18.848;2023-04-04T02:33:08;99376.24;;;-0.59;61.59
62436;BME280;48480;50.252;18.848;2023-04-04T02:35:34;99372.66;;;-0.65;61.60
62436;BME280;48480;50.252;18.848;2023-04-04T02:37:59;99373.27;;;-0.64;61.67
62436;BME280;48480;50.252;18.848;2023-04-04T02:40:25;99373.92;;;-0.65;61.77
62436;BME280;48480;50.252;18.848;2023-04-04T02:42:50;99375.95;;;-0.65;61.88
62436;BME280;48480;50.252;18.848;2023-04-04T02:45:16;99377.86;;;-0.65;61.86
62436;BME280;48480;50.252;18.848;2023-04-04T02:47:48;99376.10;;;-0.68;61.90
62436;BME280;48480;50.252;18.848;2023-04-04T02:50:14;99374.25;;;-0.70;61.92
62436;BME280;48480;50.252;18.848;2023-04-04T02:52:40;99373.23;;;-0.69;61.84
62436;BME280;48480;50.252;18.848;2023-04-04T02:55:06;99376.54;;;-0.67;62.04
62436;BME280;48480;50.252;18.848;2023-04-04T02:57:32;99376.58;;;-0.64;62.02
62436;BME280;48480;50.252;18.848;2023-04-04T02:59:58;99378.72;;;-0.63;62.06
62436;BME280;48480;50.252;18.848;2023-04-04T03:02:23;99381.34;;;-0.60;62.00
62436;BME280;48480;50.252;18.848;2023-04-04T03:04:50;99382.71;;;-0.56;62.05
62436;BME280;48480;50.252;18.848;2023-04-04T03:07:15;99378.02;;;-0.50;62.05
62436;BME280;48480;50.252;18.848;2023-04-04T03:09:41;99378.52;;;-0.48;61.90
62436;BME280;48480;50.252;18.848;2023-04-04T03:12:10;99382.14;;;-0.46;61.79
62436;BME280;48480;50.252;18.848;2023-04-04T03:14:35;99383.16;;;-0.51;61.90
62436;BME280;48480;50.252;18.848;2023-04-04T03:17:01;99379.55;;;-0.54;61.69
62436;BME280;48480;50.252;18.848;2023-04-04T03:19:27;99379.30;;;-0.59;61.86
62436;BME280;48480;50.252;18.848;2023-04-04T03:21:53;99378.09;;;-0.65;62.08
62436;BME280;48480;50.252;18.848;2023-04-04T03:24:19;99377.02;;;-0.67;62.33
62436;BME280;48480;50.252;18.848;2023-04-04T03:26:44;99380.47;;;-0.66;62.32
62436;BME280;48480;50.252;18.848;2023-04-04T03:29:10;99377.46;;;-0.66;62.21
62436;BME280;48480;50.252;18.848;2023-04-04T03:31:35;99374.33;;;-0.65;62.12
62436;BME280;48480;50.252;18.848;2023-04-04T03:34:01;99376.09;;;-0.63;62.12
62436;BME280;48480;50.252;18.848;2023-04-04T03:36:29;99372.50;;;-0.65;62.09
62436;BME280;48480;50.252;18.848;2023-04-04T03:38:55;99374.34;;;-0.67;62.24
62436;BME280;48480;50.252;18.848;2023-04-04T03:41:20;99375.37;;;-0.68;62.26
62436;BME280;48480;50.252;18.848;2023-04-04T03:43:46;99373.75;;;-0.65;62.42
62436;BME280;48480;50.252;18.848;2023-04-04T03:46:12;99371.69;;;-0.65;62.39
62436;BME280;48480;50.252;18.848;2023-04-04T03:48:38;99372.33;;;-0.65;62.31
62436;BME280;48480;50.252;18.848;2023-04-04T03:51:04;99371.77;;;-0.66;62.38
62436;BME280;48480;50.252;18.848;2023-04-04T03:53:29;99370.17;;;-0.67;62.39
62436;BME280;48480;50.252;18.848;2023-04-04T03:55:55;99369.16;;;-0.72;62.39
62436;BME280;48480;50.252;18.848;2023-04-04T03:58:21;99367.11;;;-0.77;62.53
62436;BME280;48480;50.252;18.848;2023-04-04T04:00:47;99367.16;;;-0.78;62.75
62436;BME280;48480;50.252;18.848;2023-04-04T04:03:13;99368.10;;;-0.78;62.59
62436;BME280;48480;50.252;18.848;2023-04-04T04:05:38;99367.26;;;-0.82;62.72
62436;BME280;48480;50.252;18.848;2023-04-04T04:08:04;99369.59;;;-0.85;62.86
62436;BME280;48480;50.252;18.848;2023-04-04T04:10:31;99365.45;;;-0.85;62.91
62436;BME280;48480;50.252;18.848;2023-04-04T04:12:56;99363.00;;;-0.83;63.01
62436;BME280;48480;50.252;18.848;2023-04-04T04:15:21;99364.98;;;-0.86;62.92
62436;BME280;48480;50.252;18.848;2023-04-04T04:17:47;99366.06;;;-0.90;62.92
62436;BME280;48480;50.252;18.848;2023-04-04T04:20:12;99365.71;;;-0.95;62.99
62436;BME280;48480;50.252;18.848;2023-04-04T04:22:38;99362.64;;;-0.96;63.26
62436;BME280;48480;50.252;18.848;2023-04-04T04:25:09;99358.80;;;-0.96;63.29
62436;BME280;48480;50.252;18.848;2023-04-04T04:27:35;99354.73;;;-0.95;63.34
62436;BME280;48480;50.252;18.848;2023-04-04T04:30:00;99353.26;;;-0.93;63.38
62436;BME280;48480;50.252;18.848;2023-04-04T04:32:26;99357.58;;;-0.88;63.35
62436;BME280;48480;50.252;18.848;2023-04-04T04:34:52;99355.48;;;-0.88;63.33
62436;BME280;48480;50.252;18.848;2023-04-04T04:37:18;99356.35;;;-0.86;63.28
62436;BME280;48480;50.252;18.848;2023-04-04T04:39:43;99357.50;;;-0.81;63.43
62436;BME280;48480;50.252;18.848;2023-04-04T04:42:08;99357.06;;;-0.77;63.13
62436;BME280;48480;50.252;18.848;2023-04-04T04:44:34;99357.33;;;-0.75;63.20
62436;BME280;48480;50.252;18.848;2023-04-04T04:46:59;99360.12;;;-0.70;63.26
62436;BME280;48480;50.252;18.848;2023-04-04T04:49:25;99358.45;;;-0.66;62.88
62436;BME280;48480;50.252;18.848;2023-04-04T04:51:50;99362.83;;;-0.66;62.79
62436;BME280;48480;50.252;18.848;2023-04-04T04:54:16;99364.70;;;-0.64;62.82
62436;BME280;48480;50.252;18.848;2023-04-04T04:56:41;99363.91;;;-0.61;62.68
62436;BME280;48480;50.252;18.848;2023-04-04T04:59:06;99365.95;;;-0.58;62.60
62436;BME280;48480;50.252;18.848;2023-04-04T05:01:33;99369.30;;;-0.55;62.52
62436;BME280;48480;50.252;18.848;2023-04-04T05:03:58;99373.89;;;-0.51;62.39
62436;BME280;48480;50.252;18.848;2023-04-04T05:06:24;99372.96;;;-0.51;62.27
62436;BME280;48480;50.252;18.848;2023-04-04T05:08:49;99376.45;;;-0.51;62.10
62436;BME280;48480;50.252;18.848;2023-04-04T05:11:15;99378.80;;;-0.45;62.25
62436;BME280;48480;50.252;18.848;2023-04-04T05:13:40;99379.34;;;-0.37;62.02
62436;BME280;48480;50.252;18.848;2023-04-04T05:16:06;99374.74;;;-0.37;61.91
62436;BME280;48480;50.252;18.848;2023-04-04T05:18:31;99380.23;;;-0.33;61.90
62436;BME280;48480;50.252;18.848;2023-04-04T05:20:56;99381.09;;;-0.28;61.69
62436;BME280;48480;50.252;18.848;2023-04-04T05:23:22;99383.07;;;-0.21;61.46
62436;BME280;48480;50.252;18.848;2023-04-04T05:25:51;99383.27;;;-0.17;61.31
62436;BME280;48480;50.252;18.848;2023-04-04T05:28:18;99380.16;;;-0.12;60.94
62436;BME280;48480;50.252;18.848;2023-04-04T05:30:45;99379.02;;;-0.09;60.66
62436;BME280;48480;50.252;18.848;2023-04-04T05:33:11;99377.99;;;-0.08;60.49
62436;BME280;48480;50.252;18.848;2023-04-04T05:35:36;99377.44;;;-0.05;60.28
62436;BME280;48480;50.252;18.848;2023-04-04T05:38:02;99383.84;;;-0.02;60.18
62436;BME280;48480;50.252;18.848;2023-04-04T05:40:27;99385.13;;;0.03;59.94
62436;BME280;48480;50.252;18.848;2023-04-04T05:42:57;99386.35;;;0.11;60.01
62436;BME280;48480;50.252;18.848;2023-04-04T05:46:54;99390.41;;;0.26;59.54
62436;BME280;48480;50.252;18.848;2023-04-04T05:49:22;99392.31;;;0.30;59.39
62436;BME280;48480;50.252;18.848;2023-04-04T05:51:48;99395.92;;;0.36;59.10
62436;BME280;48480;50.252;18.848;2023-04-04T05:54:13;99392.61;;;0.35;58.77
62436;BME280;48480;50.252;18.848;2023-04-04T05:56:38;99395.46;;;0.33;58.73
62436;BME280;48480;50.252;18.848;2023-04-04T05:59:04;99390.29;;;0.35;58.58
62436;BME280;48480;50.252;18.848;2023-04-04T06:01:30;99391.80;;;0.41;58.46
62436;BME280;48480;50.252;18.848;2023-04-04T06:03:55;99394.53;;;0.42;58.09
62436;BME280;48480;50.252;18.848;2023-04-04T06:06:21;99392.75;;;0.36;57.71
62436;BME280;48480;50.252;18.848;2023-04-04T06:08:46;99390.05;;;0.36;57.67
62436;BME280;48480;50.252;18.848;2023-04-04T06:11:12;99387.36;;;0.41;57.89
62436;BME280;48480;50.252;18.848;2023-04-04T06:13:37;99388.83;;;0.46;57.71
62436;BME280;48480;50.252;18.848;2023-04-04T06:16:02;99383.04;;;0.50;57.39
62436;BME280;48480;50.252;18.848;2023-04-04T06:18:28;99383.50;;;0.51;57.17
62436;BME280;48480;50.252;18.848;2023-04-04T06:20:53;99390.73;;;0.49;56.88
62436;BME280;48480;50.252;18.848;2023-04-04T06:23:19;99388.02;;;0.46;56.67
62436;BME280;48480;50.252;18.848;2023-04-04T06:25:47;99392.30;;;0.42;56.76
62436;BME280;48480;50.252;18.848;2023-04-04T06:28:12;99385.64;;;0.81;56.11
62436;BME280;48480;50.252;18.848;2023-04-04T06:30:40;99383.86;;;1.39;55.05
62436;BME280;48480;50.252;18.848;2023-04-04T06:33:05;99382.66;;;1.93;53.57
62436;BME280;48480;50.252;18.848;2023-04-04T06:35:31;99381.91;;;2.52;53.26
62436;BME280;48480;50.252;18.848;2023-04-04T06:37:57;99380.59;;;3.22;51.90
62436;BME280;48480;50.252;18.848;2023-04-04T06:40:22;99376.43;;;3.89;50.58
62436;BME280;48480;50.252;18.848;2023-04-04T06:42:49;99371.40;;;4.55;49.35
62436;BME280;48480;50.252;18.848;2023-04-04T06:45:16;99369.02;;;5.18;47.94
62436;BME280;48480;50.252;18.848;2023-04-04T06:47:42;99370.27;;;5.74;46.40
62436;BME280;48480;50.252;18.848;2023-04-04T06:50:08;99372.44;;;6.19;44.98
62436;BME280;48480;50.252;18.848;2023-04-04T06:52:34;99365.34;;;6.46;43.85
62436;BME280;48480;50.252;18.848;2023-04-04T06:55:00;99368.37;;;6.84;44.17
62436;BME280;48480;50.252;18.848;2023-04-04T06:57:26;99368.20;;;7.25;43.04
62436;BME280;48480;50.252;18.848;2023-04-04T06:59:51;99348.73;;;7.41;41.97
62436;BME280;48480;50.252;18.848;2023-04-04T07:02:16;99373.23;;;7.83;41.59
62436;BME280;48480;50.252;18.848;2023-04-04T07:04:42;99373.82;;;8.14;40.94
62436;BME280;48480;50.252;18.848;2023-04-04T07:07:08;99365.69;;;8.49;39.82
62436;BME280;48480;50.252;18.848;2023-04-04T07:09:33;99363.13;;;8.70;38.72
62436;BME280;48480;50.252;18.848;2023-04-04T07:12:02;99363.27;;;8.85;38.43
62436;BME280;48480;50.252;18.848;2023-04-04T07:14:27;99363.59;;;9.08;37.45
62436;BME280;48480;50.252;18.848;2023-04-04T07:16:53;99364.40;;;9.22;37.14
62436;BME280;48480;50.252;18.848;2023-04-04T07:19:19;99370.94;;;9.42;36.67
62436;BME280;48480;50.252;18.848;2023-04-04T07:21:44;99367.03;;;9.60;35.85
62436;BME280;48480;50.252;18.848;2023-04-04T07:24:10;99363.65;;;9.74;36.01
62436;BME280;48480;50.252;18.848;2023-04-04T07:26:35;99360.14;;;10.05;35.51
62436;BME280;48480;50.252;18.848;2023-04-04T07:29:01;99362.70;;;10.25;34.90
62436;BME280;48480;50.252;18.848;2023-04-04T07:31:26;99361.95;;;10.25;34.65
62436;BME280;48480;50.252;18.848;2023-04-04T07:33:52;99362.89;;;10.36;34.37
62436;BME280;48480;50.252;18.848;2023-04-04T07:36:18;99368.89;;;10.43;33.65
62436;BME280;48480;50.252;18.848;2023-04-04T07:38:44;99363.36;;;10.44;33.47
62436;BME280;48480;50.252;18.848;2023-04-04T07:41:09;99356.28;;;10.50;33.29
62436;BME280;48480;50.252;18.848;2023-04-04T07:43:36;99362.73;;;10.61;33.09
62436;BME280;48480;50.252;18.848;2023-04-04T07:46:21;99363.69;;;10.61;33.09
62436;BME280;48480;50.252;18.848;2023-04-04T07:49:05;99373.78;;;10.53;32.64
62436;BME280;48480;50.252;18.848;2023-04-04T07:51:50;99368.54;;;10.18;32.79
62436;BME280;48480;50.252;18.848;2023-04-04T07:54:34;99365.16;;;10.06;33.39
62436;BME280;48480;50.252;18.848;2023-04-04T07:57:18;99370.64;;;10.38;33.56
62436;BME280;48480;50.252;18.848;2023-04-04T08:00:05;99367.60;;;10.57;32.83
62436;BME280;48480;50.252;18.848;2023-04-04T08:02:53;99365.25;;;10.04;32.60
62436;BME280;48480;50.252;18.848;2023-04-04T08:05:38;99365.31;;;9.27;33.55
62436;BME280;48480;50.252;18.848;2023-04-04T08:08:22;99364.11;;;8.61;34.14
62436;BME280;48480;50.252;18.848;2023-04-04T08:11:06;99362.79;;;7.87;34.96
62436;BME280;48480;50.252;18.848;2023-04-04T08:13:50;99360.02;;;7.28;35.67
62436;BME280;48480;50.252;18.848;2023-04-04T08:16:34;99358.19;;;6.79;36.26
62436;BME280;48480;50.252;18.848;2023-04-04T08:19:19;99357.18;;;6.56;36.84
62436;BME280;48480;50.252;18.848;2023-04-04T08:22:04;99356.05;;;6.85;37.01
62436;BME280;48480;50.252;18.848;2023-04-04T08:24:48;99340.90;;;6.91;36.47
62436;BME280;48480;50.252;18.848;2023-04-04T08:27:32;99354.80;;;7.05;36.48
62436;BME280;48480;50.252;18.848;2023-04-04T08:30:17;99356.56;;;7.25;36.45
62436;BME280;48480;50.252;18.848;2023-04-04T08:33:01;99352.21;;;7.64;35.89
62436;BME280;48480;50.252;18.848;2023-04-04T08:35:45;99324.63;;;7.71;35.51
62436;BME280;48480;50.252;18.848;2023-04-04T08:38:32;99359.13;;;8.19;34.68
62436;BME280;48480;50.252;18.848;2023-04-04T08:41:16;99357.78;;;8.49;34.11
62436;BME280;48480;50.252;18.848;2023-04-04T08:44:01;99343.39;;;8.76;33.17
62436;BME280;48480;50.252;18.848;2023-04-04T08:46:48;99349.98;;;8.80;32.97
62436;BME280;48480;50.252;18.848;2023-04-04T08:49:39;99348.55;;;8.84;33.15
62436;BME280;48480;50.252;18.848;2023-04-04T08:52:25;99338.19;;;9.16;33.03
62436;BME280;48480;50.252;18.848;2023-04-04T08:55:11;99335.80;;;9.52;31.92
62436;BME280;48480;50.252;18.848;2023-04-04T08:57:56;99340.86;;;9.92;31.32
62436;BME280;48480;50.252;18.848;2023-04-04T09:00:40;99334.23;;;10.21;30.94
62436;BME280;48480;50.252;18.848;2023-04-04T09:03:26;99330.60;;;10.53;31.56
62436;BME280;48480;50.252;18.848;2023-04-04T09:06:14;99332.63;;;10.57;30.77
62436;BME280;48480;50.252;18.848;2023-04-04T09:09:00;99335.70;;;10.31;31.51
62436;BME280;48480;50.252;18.848;2023-04-04T09:11:45;99329.67;;;10.34;31.11
62436;BME280;48480;50.252;18.848;2023-04-04T09:14:32;99328.21;;;10.22;30.98
62436;BME280;48480;50.252;18.848;2023-04-04T09:17:18;99326.20;;;9.82;30.89
62436;BME280;48480;50.252;18.848;2023-04-04T09:20:11;99327.30;;;9.22;31.25
62436;BME280;48480;50.252;18.848;2023-04-04T09:23:14;99328.47;;;8.64;32.00
62436;BME280;48480;50.252;18.848;2023-04-04T09:25:59;99324.20;;;8.23;32.99
62436;BME280;48480;50.252;18.848;2023-04-04T09:28:51;99322.66;;;7.76;33.34
62436;BME280;48480;50.252;18.848;2023-04-04T09:31:35;99320.73;;;7.45;34.22
62436;BME280;48480;50.252;18.848;2023-04-04T09:34:19;99325.27;;;7.11;34.29
62436;BME280;48480;50.252;18.848;2023-04-04T09:37:04;99331.15;;;6.77;34.37
62436;BME280;48480;50.252;18.848;2023-04-04T09:39:48;99333.30;;;6.47;35.26
62436;BME280;48480;50.252;18.848;2023-04-04T09:42:33;99330.47;;;6.70;35.93
62436;BME280;48480;50.252;18.848;2023-04-04T09:45:18;99327.73;;;7.12;35.72
62436;BME280;48480;50.252;18.848;2023-04-04T09:48:02;99328.08;;;7.24;35.03
62436;BME280;48480;50.252;18.848;2023-04-04T09:50:47;99328.19;;;7.35;34.75
62436;BME280;48480;50.252;18.848;2023-04-04T09:53:35;99333.12;;;7.16;34.96
62436;BME280;48480;50.252;18.848;2023-04-04T09:56:22;99333.85;;;7.00;35.52
62436;BME280;48480;50.252;18.848;2023-04-04T09:59:06;99335.30;;;6.90;35.45
62436;BME280;48480;50.252;18.848;2023-04-04T10:01:53;99329.90;;;6.96;35.23
62436;BME280;48480;50.252;18.848;2023-04-04T10:04:38;99326.61;;;7.29;35.03
62436;BME280;48480;50.252;18.848;2023-04-04T10:07:26;99322.31;;;7.35;34.81
62436;BME280;48480;50.252;18.848;2023-04-04T10:10:12;99324.92;;;7.23;34.95
62436;BME280;48480;50.252;18.848;2023-04-04T10:12:59;99324.41;;;7.16;35.14
62436;BME280;48480;50.252;18.848;2023-04-04T10:15:45;99325.56;;;7.02;34.93
62436;BME280;48480;50.252;18.848;2023-04-04T10:18:35;99315.77;;;6.99;35.07
62436;BME280;48480;50.252;18.848;2023-04-04T10:21:20;99317.67;;;6.94;34.96
62436;BME280;48480;50.252;18.848;2023-04-04T10:24:05;99319.80;;;7.01;35.43
62436;BME280;48480;50.252;18.848;2023-04-04T10:26:52;99316.06;;;7.05;35.34
62436;BME280;48480;50.252;18.848;2023-04-04T10:29:38;99317.87;;;7.05;35.49
62436;BME280;48480;50.252;18.848;2023-04-04T10:32:49;99311.70;;;7.16;35.16
62436;BME280;48480;50.252;18.848;2023-04-04T10:35:33;99317.84;;;7.17;34.75
62436;BME280;48480;50.252;18.848;2023-04-04T10:38:26;99321.96;;;7.08;34.74
62436;BME280;48480;50.252;18.848;2023-04-04T10:41:12;99320.52;;;6.90;34.49
62436;BME280;48480;50.252;18.848;2023-04-04T10:43:59;99317.86;;;6.84;34.66
62436;BME280;48480;50.252;18.848;2023-04-04T10:46:46;99309.87;;;6.76;34.60
62436;BME280;48480;50.252;18.848;2023-04-04T10:49:33;99311.16;;;6.67;35.21
62436;BME280;48480;50.252;18.848;2023-04-04T10:52:26;99314.19;;;6.76;35.64
62436;BME280;48480;50.252;18.848;2023-04-04T10:55:13;99316.33;;;6.79;35.13
62436;BME280;48480;50.252;18.848;2023-04-04T10:57:57;99312.89;;;6.84;34.97
62436;BME280;48480;50.252;18.848;2023-04-04T11:00:50;99311.22;;;6.98;34.90
62436;BME280;48480;50.252;18.848;2023-04-04T11:09:55;99306.14;;;7.60;33.69
62436;BME280;48480;50.252;18.848;2023-04-04T11:12:44;99306.98;;;7.54;33.52
62436;BME280;48480;50.252;18.848;2023-04-04T11:15:44;99302.73;;;7.35;33.80
62436;BME280;48480;50.252;18.848;2023-04-04T11:21:19;99311.59;;;7.16;34.15
62436;BME280;48480;50.252;18.848;2023-04-04T11:24:16;99311.25;;;7.10;34.38
62436;BME280;48480;50.252;18.848;2023-04-04T11:27:00;99299.35;;;7.07;35.16
62436;BME280;48480;50.252;18.848;2023-04-04T11:29:56;99297.73;;;7.11;36.06
62436;BME280;48480;50.252;18.848;2023-04-04T11:32:42;99295.88;;;7.10;36.13
62436;BME280;48480;50.252;18.848;2023-04-04T11:35:30;99305.13;;;7.03;36.18
62436;BME280;48480;50.252;18.848;2023-04-04T11:38:14;99308.02;;;6.95;36.16
62436;BME280;48480;50.252;18.848;2023-04-04T11:40:59;99305.09;;;6.99;35.89
62436;BME280;48480;50.252;18.848;2023-04-04T11:43:44;99297.37;;;7.07;35.68
62436;BME280;48480;50.252;18.848;2023-04-04T11:46:30;99293.42;;;7.26;36.40
62436;BME280;48480;50.252;18.848;2023-04-04T11:49:14;99297.35;;;7.56;36.64
62436;BME280;48480;50.252;18.848;2023-04-04T11:52:03;99298.64;;;7.63;36.32
62436;BME280;48480;50.252;18.848;2023-04-04T11:54:48;99295.26;;;7.56;35.48
62436;BME280;48480;50.252;18.848;2023-04-04T11:57:40;99276.34;;;7.39;35.28
62436;BME280;48480;50.252;18.848;2023-04-04T12:00:33;99283.80;;;7.28;35.61
62436;BME280;48480;50.252;18.848;2023-04-04T12:03:20;99286.12;;;7.23;36.06
62436;BME280;48480;50.252;18.848;2023-04-04T12:06:06;99253.78;;;6.93;36.27
62436;BME280;48480;50.252;18.848;2023-04-04T12:08:51;99288.04;;;7.08;36.05
62436;BME280;48480;50.252;18.848;2023-04-04T12:11:37;99288.73;;;6.86;35.63
62436;BME280;48480;50.252;18.848;2023-04-04T12:14:22;99288.93;;;6.64;36.11
62436;BME280;48480;50.252;18.848;2023-04-04T12:17:07;99287.45;;;6.48;36.07
62436;BME280;48480;50.252;18.848;2023-04-04T12:19:51;99288.25;;;6.35;36.89
62436;BME280;48480;50.252;18.848;2023-04-04T12:22:36;99295.40;;;6.42;36.78
62436;BME280;48480;50.252;18.848;2023-04-04T12:25:21;99293.70;;;6.37;36.36
62436;BME280;48480;50.252;18.848;2023-04-04T12:28:07;99290.70;;;6.13;36.35
62436;BME280;48480;50.252;18.848;2023-04-04T12:30:51;99286.59;;;5.87;36.89
62436;BME280;48480;50.252;18.848;2023-04-04T12:33:35;99287.17;;;5.65;37.32
62436;BME280;48480;50.252;18.848;2023-04-04T12:36:32;99297.95;;;5.56;37.94
62436;BME280;48480;50.252;18.848;2023-04-04T12:39:18;99303.77;;;5.43;38.28
62436;BME280;48480;50.252;18.848;2023-04-04T12:42:03;99299.07;;;5.41;38.33
62436;BME280;48480;50.252;18.848;2023-04-04T12:44:52;99301.98;;;5.49;38.24
62436;BME280;48480;50.252;18.848;2023-04-04T12:47:38;99288.91;;;5.56;37.88
62436;BME280;48480;50.252;18.848;2023-04-04T12:50:23;99301.11;;;5.81;38.07
62436;BME280;48480;50.252;18.848;2023-04-04T12:53:09;99298.23;;;5.96;37.87
62436;BME280;48480;50.252;18.848;2023-04-04T12:55:54;99295.59;;;6.03;37.41
62436;BME280;48480;50.252;18.848;2023-04-04T12:58:22;99294.32;;;6.11;37.30
62436;BME280;48480;50.252;18.848;2023-04-04T13:00:53;99302.94;;;6.06;36.84
62436;BME280;48480;50.252;18.848;2023-04-04T13:03:23;99306.79;;;5.92;36.95
62436;BME280;48480;50.252;18.848;2023-04-04T13:05:49;99311.09;;;5.82;37.21
62436;BME280;48480;50.252;18.848;2023-04-04T13:08:17;99304.02;;;5.73;37.15
62436;BME280;48480;50.252;18.848;2023-04-04T13:11:03;99305.81;;;5.68;36.99
62436;BME280;48480;50.252;18.848;2023-04-04T13:13:40;99298.35;;;5.63;37.48
62436;BME280;48480;50.252;18.848;2023-04-04T13:16:27;99296.48;;;5.61;37.49
62436;BME280;48480;50.252;18.848;2023-04-04T13:18:53;99304.90;;;5.51;37.20
62436;BME280;48480;50.252;18.848;2023-04-04T13:21:19;99310.11;;;5.34;37.00
62436;BME280;48480;50.252;18.848;2023-04-04T13:23:44;99305.50;;;5.13;37.12
62436;BME280;48480;50.252;18.848;2023-04-04T13:26:10;99299.61;;;4.98;37.42
62436;BME280;48480;50.252;18.848;2023-04-04T13:28:36;99306.28;;;4.83;37.29
62436;BME280;48480;50.252;18.848;2023-04-04T13:31:06;99309.40;;;4.72;37.36
62436;BME280;48480;50.252;18.848;2023-04-04T13:33:36;99306.42;;;4.65;37.39
62436;BME280;48480;50.252;18.848;2023-04-04T13:36:02;99308.59;;;4.69;37.65
62436;BME280;48480;50.252;18.848;2023-04-04T13:38:29;99296.60;;;4.71;37.92
62436;BME280;48480;50.252;18.848;2023-04-04T13:40:58;99304.06;;;4.85;37.64
62436;BME280;48480;50.252;18.848;2023-04-04T13:43:24;99303.67;;;4.93;37.56